Time;durP1;ratioP1;P1;durP2;ratioP2;P2;SDS_P1;SDS_P2;PMS_P1;PMS_P2;Temp;Humidity;BMP_temperature;BMP_pressure;BME280_temperature;BME280_humidity;BME280_pressure;Samples;Min_cycle;Max_cycle;Signal;HPM_P1;HPM_P2
2021/11/11 00:01:42;;;;;;;6.50;5.10;;;;;;;;;;5036256;28;20455;-49
2021/11/11 00:04:11;;;;;;;6.82;5.32;;;;;;;;;;5023787;28;20196;-49
2021/11/11 00:06:39;;;;;;;5.72;4.88;;;;;;;;;;5032396;28;20184;-49
2021/11/11 00:09:05;;;;;;;6.10;4.75;;;;;;;;;;5037292;28;20176;-51
2021/11/11 00:11:31;;;;;;;5.60;5.05;;;;;;;;;;5037332;28;20466;-50
2021/11/11 00:13:57;;;;;;;6.07;4.78;;;;;;;;;;5033879;28;20176;-49
2021/11/11 00:16:23;;;;;;;6.10;5.38;;;;;;;;;;5032848;28;20179;-49
2021/11/11 00:18:49;;;;;;;5.50;5.00;;;;;;;;;;5037543;28;20450;-51
2021/11/11 00:21:15;;;;;;;7.63;4.85;;;;;;;;;;5036886;28;20176;-50
2021/11/11 00:23:42;;;;;;;5.20;4.70;;;;;;;;;;5036567;28;20262;-50
2021/11/11 00:26:09;;;;;;;5.28;4.75;;;;;;;;;;5036679;28;20211;-49
2021/11/11 00:28:35;;;;;;;5.03;4.47;;;;;;;;;;5029689;28;20181;-50
2021/11/11 00:31:01;;;;;;;6.90;5.07;;;;;;;;;;5033651;28;20229;-50
2021/11/11 00:33:27;;;;;;;5.88;4.63;;;;;;;;;;5035653;28;20509;-50
2021/11/11 00:35:53;;;;;;;6.65;4.75;;;;;;;;;;5036868;28;20216;-50
2021/11/11 00:38:19;;;;;;;6.93;4.82;;;;;;;;;;5036935;28;20465;-50
2021/11/11 00:40:46;;;;;;;6.45;4.60;;;;;;;;;;5036611;28;20211;-49
2021/11/11 00:43:12;;;;;;;6.03;5.28;;;;;;;;;;5024242;28;20239;-49
2021/11/11 00:45:38;;;;;;;5.32;4.82;;;;;;;;;;5033984;28;20183;-50
2021/11/11 00:48:04;;;;;;;5.40;4.82;;;;;;;;;;5036583;28;20180;-51
2021/11/11 00:50:31;;;;;;;5.00;4.47;;;;;;;;;;5036170;28;20187;-50
2021/11/11 00:52:58;;;;;;;7.10;4.60;;;;;;;;;;5035622;28;20188;-50
2021/11/11 00:55:24;;;;;;;6.28;4.78;;;;;;;;;;5035944;28;20184;-50
2021/11/11 00:57:51;;;;;;;5.60;4.60;;;;;;;;;;5024300;28;20172;-49
2021/11/11 01:00:18;;;;;;;5.40;4.70;;;;;;;;;;5036001;28;20281;-50
2021/11/11 01:02:46;;;;;;;5.13;4.60;;;;;;;;;;5035920;28;20192;-50
2021/11/11 01:05:13;;;;;;;5.43;4.78;;;;;;;;;;5036258;28;20172;-50
2021/11/11 01:07:39;;;;;;;5.85;4.72;;;;;;;;;;5035676;28;20184;-49
2021/11/11 01:10:09;;;;;;;5.50;4.60;;;;;;;;;;5034387;28;20178;-50
2021/11/11 01:12:35;;;;;;;5.03;4.53;;;;;;;;;;5018505;28;20196;-50
2021/11/11 01:15:03;;;;;;;5.55;4.68;;;;;;;;;;5028888;28;20516;-51
2021/11/11 01:17:29;;;;;;;5.80;4.80;;;;;;;;;;5036239;28;20176;-50
2021/11/11 01:19:56;;;;;;;5.20;4.45;;;;;;;;;;5035496;28;20579;-49
2021/11/11 01:22:22;;;;;;;5.80;4.63;;;;;;;;;;5035685;28;20210;-51
2021/11/11 01:24:48;;;;;;;5.05;4.38;;;;;;;;;;5031459;28;20172;-49
2021/11/11 01:27:14;;;;;;;6.30;4.78;;;;;;;;;;5035644;28;20222;-49
2021/11/11 01:29:40;;;;;;;5.78;4.72;;;;;;;;;;5035657;28;20184;-51
2021/11/11 01:32:07;;;;;;;5.28;4.43;;;;;;;;;;5035558;28;20236;-50
2021/11/11 01:34:33;;;;;;;6.05;4.70;;;;;;;;;;5035005;28;20266;-50
2021/11/11 01:36:59;;;;;;;5.53;4.47;;;;;;;;;;5035942;28;20647;-50
2021/11/11 01:39:25;;;;;;;5.03;4.50;;;;;;;;;;5034752;28;20245;-50
2021/11/11 01:41:51;;;;;;;4.65;4.07;;;;;;;;;;5034163;28;20436;-50
2021/11/11 01:44:18;;;;;;;4.93;4.43;;;;;;;;;;5035192;28;20314;-49
2021/11/11 01:46:44;;;;;;;4.90;4.40;;;;;;;;;;5035560;28;20595;-49
2021/11/11 01:49:11;;;;;;;4.70;3.97;;;;;;;;;;5033441;28;20193;-50
2021/11/11 01:51:37;;;;;;;5.00;4.50;;;;;;;;;;5043206;28;20175;-50
2021/11/11 01:54:04;;;;;;;4.95;4.38;;;;;;;;;;5027040;28;20206;-49
2021/11/11 01:56:30;;;;;;;5.47;4.50;;;;;;;;;;5035224;28;20258;-49
2021/11/11 01:58:56;;;;;;;5.80;4.80;;;;;;;;;;5035112;28;20264;-49
2021/11/11 02:01:22;;;;;;;6.18;4.18;;;;;;;;;;5034833;28;20219;-49
2021/11/11 02:03:48;;;;;;;5.30;4.30;;;;;;;;;;5034099;28;20191;-50
2021/11/11 02:06:14;;;;;;;4.40;4.00;;;;;;;;;;5034472;28;20184;-50
2021/11/11 02:08:41;;;;;;;5.25;4.38;;;;;;;;;;5018923;28;20178;-49
2021/11/11 02:11:07;;;;;;;5.30;4.35;;;;;;;;;;5034737;28;20222;-50
2021/11/11 02:13:33;;;;;;;4.80;4.05;;;;;;;;;;5034632;28;20455;-49
2021/11/11 02:15:59;;;;;;;4.82;4.03;;;;;;;;;;5034800;28;20180;-50
2021/11/11 02:18:25;;;;;;;4.47;4.07;;;;;;;;;;5034747;28;20551;-49
2021/11/11 02:20:51;;;;;;;5.55;4.53;;;;;;;;;;5034378;28;20545;-49
2021/11/11 02:23:19;;;;;;;5.28;4.15;;;;;;;;;;5033416;28;20825;-49
2021/11/11 02:25:46;;;;;;;4.75;4.30;;;;;;;;;;5034756;28;20258;-49
2021/11/11 02:28:13;;;;;;;5.20;4.40;;;;;;;;;;5034998;28;20172;-49
2021/11/11 02:30:40;;;;;;;4.60;4.10;;;;;;;;;;5033756;28;20202;-49
2021/11/11 02:33:10;;;;;;;4.88;4.05;;;;;;;;;;5033876;28;20264;-50
2021/11/11 02:35:36;;;;;;;4.63;3.88;;;;;;;;;;5034101;28;20179;-50
2021/11/11 02:38:03;;;;;;;4.38;3.97;;;;;;;;;;5034376;28;20865;-50
2021/11/11 02:40:29;;;;;;;4.10;3.70;;;;;;;;;;5034079;28;20602;-50
2021/11/11 02:42:55;;;;;;;4.60;4.18;;;;;;;;;;5033384;28;20184;-50
2021/11/11 02:45:22;;;;;;;4.55;4.10;;;;;;;;;;5034118;28;20171;-51
2021/11/11 02:47:48;;;;;;;4.65;4.22;;;;;;;;;;5034061;28;20274;-51
2021/11/11 02:50:15;;;;;;;4.38;3.97;;;;;;;;;;5028977;28;20462;-50
2021/11/11 02:52:42;;;;;;;5.05;4.40;;;;;;;;;;5034138;28;20559;-49
2021/11/11 02:55:08;;;;;;;4.65;4.15;;;;;;;;;;5033708;28;20217;-49
2021/11/11 02:57:36;;;;;;;4.53;4.10;;;;;;;;;;5034153;28;20176;-49
2021/11/11 03:00:07;;;;;;;4.70;4.20;;;;;;;;;;5033856;28;20349;-50
2021/11/11 03:02:34;;;;;;;4.25;3.85;;;;;;;;;;5033295;28;20206;-49
2021/11/11 03:05:02;;;;;;;4.50;3.90;;;;;;;;;;5033775;28;20175;-50
2021/11/11 03:07:28;;;;;;;4.45;3.97;;;;;;;;;;5033975;28;20568;-51
2021/11/11 03:09:54;;;;;;;4.15;3.72;;;;;;;;;;5033611;28;20211;-49
2021/11/11 03:12:21;;;;;;;4.38;3.80;;;;;;;;;;5034366;28;20296;-50
2021/11/11 03:14:48;;;;;;;4.65;4.15;;;;;;;;;;5033654;28;20190;-49
2021/11/11 03:17:14;;;;;;;4.63;4.22;;;;;;;;;;5033976;28;20176;-50
2021/11/11 03:19:41;;;;;;;4.10;3.70;;;;;;;;;;5032982;28;20281;-50
2021/11/11 03:22:09;;;;;;;4.32;3.83;;;;;;;;;;5033714;28;20694;-49
2021/11/11 03:24:35;;;;;;;6.13;4.22;;;;;;;;;;5033393;28;20333;-50
2021/11/11 03:27:01;;;;;;;3.95;3.55;;;;;;;;;;5019327;28;20814;-51
2021/11/11 03:29:27;;;;;;;4.80;4.25;;;;;;;;;;5030409;28;20291;-50
2021/11/11 03:31:53;;;;;;;5.10;4.20;;;;;;;;;;5032881;28;20199;-50
2021/11/11 03:34:19;;;;;;;5.22;4.00;;;;;;;;;;5032915;28;20282;-49
2021/11/11 03:36:46;;;;;;;4.75;4.10;;;;;;;;;;5034216;28;20186;-49
2021/11/11 03:39:14;;;;;;;4.65;4.25;;;;;;;;;;5031350;28;20200;-49
2021/11/11 03:41:40;;;;;;;4.80;3.88;;;;;;;;;;5032871;28;20471;-49
2021/11/11 03:44:07;;;;;;;4.95;3.88;;;;;;;;;;5032969;28;20226;-50
2021/11/11 03:46:33;;;;;;;4.20;3.80;;;;;;;;;;5033618;28;20258;-49
2021/11/11 03:48:59;;;;;;;4.93;4.10;;;;;;;;;;5029922;28;20573;-49
2021/11/11 03:51:25;;;;;;;3.95;3.55;;;;;;;;;;5033144;28;20258;-49
2021/11/11 03:53:52;;;;;;;4.40;3.95;;;;;;;;;;5033424;28;20601;-49
2021/11/11 03:56:18;;;;;;;4.07;3.67;;;;;;;;;;5033173;28;20184;-50
2021/11/11 03:58:46;;;;;;;4.35;3.95;;;;;;;;;;5033196;28;20231;-49
2021/11/11 04:01:13;;;;;;;4.13;3.72;;;;;;;;;;5031901;28;20196;-51
2021/11/11 04:03:39;;;;;;;4.97;3.90;;;;;;;;;;5032771;28;20876;-50
2021/11/11 04:06:05;;;;;;;4.53;3.47;;;;;;;;;;5036858;28;20192;-50
2021/11/11 04:08:31;;;;;;;4.22;3.58;;;;;;;;;;5037558;28;20188;-50
2021/11/11 04:10:57;;;;;;;4.35;3.70;;;;;;;;;;5036190;28;20192;-49
2021/11/11 04:13:24;;;;;;;4.40;4.00;;;;;;;;;;5036631;28;20187;-50
2021/11/11 04:15:50;;;;;;;4.40;3.70;;;;;;;;;;5036840;28;20505;-50
2021/11/11 04:18:16;;;;;;;4.22;3.83;;;;;;;;;;5036812;28;20192;-49
2021/11/11 04:20:42;;;;;;;3.92;3.53;;;;;;;;;;5036500;28;20207;-49
2021/11/11 04:23:09;;;;;;;4.20;3.65;;;;;;;;;;5036300;28;20585;-49
2021/11/11 04:25:41;;;;;;;5.57;3.72;;;;;;;;;;5036770;28;20180;-49
2021/11/11 04:28:10;;;;;;;5.68;3.60;;;;;;;;;;5036818;28;20190;-51
2021/11/11 04:30:37;;;;;;;4.65;3.90;;;;;;;;;;5036358;28;20750;-50
2021/11/11 04:33:05;;;;;;;3.90;3.47;;;;;;;;;;5036655;28;20172;-50
2021/11/11 04:35:32;;;;;;;4.25;3.78;;;;;;;;;;5036208;28;20195;-50
2021/11/11 04:38:14;;;;;;;4.32;3.83;;;;;;;;;;5036489;28;20171;-49
2021/11/11 04:49:05;;;;;;;3.58;3.22;;;;;;;;;;5036503;28;20262;-51
2021/11/11 05:05:16;;;;;;;3.58;3.25;;;;;;;;;;5036307;28;20466;-50
2021/11/11 05:07:42;;;;;;;6.82;4.13;;;;;;;;;;5036351;28;20176;-49
2021/11/11 05:10:09;;;;;;;3.83;3.42;;;;;;;;;;5030285;28;20180;-49
2021/11/11 05:12:35;;;;;;;3.97;3.58;;;;;;;;;;5016639;28;20173;-50
2021/11/11 05:15:01;;;;;;;3.88;3.20;;;;;;;;;;5035169;28;20198;-50
2021/11/11 05:17:27;;;;;;;16.60;4.30;;;;;;;;;;5036039;28;20207;-51
2021/11/11 05:19:53;;;;;;;9.18;3.92;;;;;;;;;;5035314;28;20195;-49
2021/11/11 05:22:19;;;;;;;10.48;4.00;;;;;;;;;;5035633;28;20179;-50
2021/11/11 05:24:45;;;;;;;10.88;4.55;;;;;;;;;;5034951;28;20187;-49
2021/11/11 05:27:13;;;;;;;6.60;3.50;;;;;;;;;;5035997;28;20195;-50
2021/11/11 05:29:39;;;;;;;7.55;3.63;;;;;;;;;;5034979;28;20180;-49
2021/11/11 05:32:05;;;;;;;5.57;3.55;;;;;;;;;;5036286;28;20175;-51
2021/11/11 05:34:31;;;;;;;6.50;3.67;;;;;;;;;;5035367;28;20263;-50
2021/11/11 05:36:57;;;;;;;5.57;3.83;;;;;;;;;;5035654;28;20203;-49
2021/11/11 05:39:23;;;;;;;5.43;3.70;;;;;;;;;;5035067;28;20258;-50
2021/11/11 05:41:49;;;;;;;7.60;3.92;;;;;;;;;;5017206;28;20200;-50
2021/11/11 05:44:15;;;;;;;8.13;3.60;;;;;;;;;;5017301;28;20195;-49
2021/11/11 05:46:41;;;;;;;6.28;3.45;;;;;;;;;;5035489;28;20198;-49
2021/11/11 05:49:07;;;;;;;6.93;3.85;;;;;;;;;;5033574;28;20579;-50
2021/11/11 05:51:33;;;;;;;6.88;4.03;;;;;;;;;;5035034;28;20493;-50
2021/11/11 05:53:59;;;;;;;5.05;3.38;;;;;;;;;;5033490;28;20184;-50
2021/11/11 05:56:25;;;;;;;5.25;3.60;;;;;;;;;;5034871;28;20205;-50
2021/11/11 05:58:52;;;;;;;5.43;3.75;;;;;;;;;;5034405;28;20188;-51
2021/11/11 06:01:19;;;;;;;7.90;3.95;;;;;;;;;;5035089;28;20184;-51
2021/11/11 06:03:45;;;;;;;5.65;3.45;;;;;;;;;;5034522;28;20191;-50
2021/11/11 06:06:11;;;;;;;5.60;3.78;;;;;;;;;;5035036;28;20178;-49
2021/11/11 06:08:37;;;;;;;9.27;3.53;;;;;;;;;;5034434;28;20517;-50
2021/11/11 06:11:03;;;;;;;6.93;3.45;;;;;;;;;;5035075;28;20416;-50
2021/11/11 06:13:29;;;;;;;5.93;3.58;;;;;;;;;;5034201;28;20522;-49
2021/11/11 06:15:55;;;;;;;6.18;3.92;;;;;;;;;;5035052;28;20187;-49
2021/11/11 06:18:21;;;;;;;4.28;3.60;;;;;;;;;;5034339;28;20172;-49
2021/11/11 06:20:53;;;;;;;4.05;3.53;;;;;;;;;;5035047;28;20595;-49
2021/11/11 06:23:19;;;;;;;5.15;3.70;;;;;;;;;;5034393;28;20180;-49
2021/11/11 06:25:45;;;;;;;4.60;3.40;;;;;;;;;;5034793;28;20179;-50
2021/11/11 06:28:11;;;;;;;6.82;3.33;;;;;;;;;;5033763;28;20182;-50
2021/11/11 06:30:37;;;;;;;4.95;3.40;;;;;;;;;;5034885;28;20266;-49
2021/11/11 06:33:03;;;;;;;3.67;3.25;;;;;;;;;;5034016;28;20183;-49
2021/11/11 06:35:30;;;;;;;3.38;3.08;;;;;;;;;;5034264;28;20183;-50
2021/11/11 06:37:57;;;;;;;6.60;3.78;;;;;;;;;;5027494;28;20207;-51
2021/11/11 06:40:23;;;;;;;3.95;3.45;;;;;;;;;;5034289;28;20215;-50
2021/11/11 06:42:49;;;;;;;4.80;3.58;;;;;;;;;;5034026;28;20171;-51
2021/11/11 06:45:16;;;;;;;5.28;3.53;;;;;;;;;;5034209;28;20183;-50
2021/11/11 06:47:43;;;;;;;4.03;3.10;;;;;;;;;;5030493;28;20600;-50
2021/11/11 06:50:09;;;;;;;3.92;3.53;;;;;;;;;;5034054;28;20199;-49
2021/11/11 06:52:36;;;;;;;5.55;3.47;;;;;;;;;;5034124;28;20299;-50
2021/11/11 06:55:03;;;;;;;4.22;3.13;;;;;;;;;;5033799;28;20255;-50
2021/11/11 06:57:29;;;;;;;4.70;3.45;;;;;;;;;;5025902;28;20180;-49
2021/11/11 06:59:55;;;;;;;4.20;3.25;;;;;;;;;;5028765;28;20205;-50
2021/11/11 07:02:23;;;;;;;4.68;3.20;;;;;;;;;;5033555;28;20172;-50
2021/11/11 07:04:49;;;;;;;4.70;3.65;;;;;;;;;;5033817;28;20176;-49
2021/11/11 07:07:15;;;;;;;4.38;3.58;;;;;;;;;;5028036;28;20183;-49
2021/11/11 07:09:41;;;;;;;4.60;3.40;;;;;;;;;;5030538;28;20226;-49
2021/11/11 07:12:07;;;;;;;3.72;3.30;;;;;;;;;;5034753;28;20487;-50
2021/11/11 07:14:33;;;;;;;5.68;3.53;;;;;;;;;;5033216;28;20172;-49
2021/11/11 07:16:59;;;;;;;4.68;3.13;;;;;;;;;;5030257;28;20509;-49
2021/11/11 07:19:25;;;;;;;3.30;3.00;;;;;;;;;;5028376;28;20199;-51
2021/11/11 07:21:52;;;;;;;3.53;3.20;;;;;;;;;;5034318;28;20519;-50
2021/11/11 07:24:18;;;;;;;4.43;3.30;;;;;;;;;;5033728;28;20176;-51
2021/11/11 07:26:44;;;;;;;3.47;3.17;;;;;;;;;;5032942;28;20187;-49
2021/11/11 07:29:10;;;;;;;4.28;3.60;;;;;;;;;;5034487;28;20175;-49
2021/11/11 07:31:36;;;;;;;4.35;3.70;;;;;;;;;;5033697;28;20274;-50
2021/11/11 07:34:02;;;;;;;3.20;2.90;;;;;;;;;;5033166;28;20198;-50
2021/11/11 07:36:30;;;;;;;4.85;3.42;;;;;;;;;;5033337;28;20180;-51
2021/11/11 07:38:56;;;;;;;3.83;3.20;;;;;;;;;;5033332;28;20456;-49
2021/11/11 07:41:22;;;;;;;4.45;3.47;;;;;;;;;;5037762;28;20184;-49
2021/11/11 07:43:48;;;;;;;3.50;2.55;;;;;;;;;;5037494;28;20190;-49
2021/11/11 07:46:15;;;;;;;3.63;3.00;;;;;;;;;;5037467;28;20207;-50
2021/11/11 07:48:41;;;;;;;5.25;3.38;;;;;;;;;;5036043;28;20582;-49
2021/11/11 07:51:08;;;;;;;5.00;3.30;;;;;;;;;;5037338;28;20559;-49
2021/11/11 07:53:34;;;;;;;4.88;3.20;;;;;;;;;;5037429;28;20619;-49
2021/11/11 07:56:00;;;;;;;4.05;3.22;;;;;;;;;;5037676;28;20254;-51
2021/11/11 07:58:26;;;;;;;4.82;2.92;;;;;;;;;;5037160;28;20168;-49
2021/11/11 08:00:53;;;;;;;3.53;2.92;;;;;;;;;;5037113;28;20804;-49
2021/11/11 08:03:19;;;;;;;4.53;3.00;;;;;;;;;;5036809;28;20279;-51
2021/11/11 08:05:45;;;;;;;5.10;3.03;;;;;;;;;;5037382;28;20648;-50
2021/11/11 08:08:11;;;;;;;4.82;2.90;;;;;;;;;;5025128;28;20180;-49
2021/11/11 08:10:38;;;;;;;6.57;2.90;;;;;;;;;;5017087;28;20511;-49
2021/11/11 08:13:05;;;;;;;8.75;3.42;;;;;;;;;;5017333;28;20173;-50
2021/11/11 08:15:31;;;;;;;6.80;3.08;;;;;;;;;;5030494;28;20251;-49
2021/11/11 08:17:58;;;;;;;13.25;3.20;;;;;;;;;;5029440;28;20184;-51
2021/11/11 08:20:25;;;;;;;5.60;3.22;;;;;;;;;;5039512;28;20472;-50
2021/11/11 08:22:51;;;;;;;3.58;2.85;;;;;;;;;;5056772;28;20178;-49
2021/11/11 08:25:18;;;;;;;4.22;3.40;;;;;;;;;;5049150;28;20167;-49
2021/11/11 08:27:45;;;;;;;5.20;3.22;;;;;;;;;;5036758;28;20469;-50
2021/11/11 08:30:13;;;;;;;4.55;3.00;;;;;;;;;;5036769;28;20184;-49
2021/11/11 08:32:40;;;;;;;4.30;3.40;;;;;;;;;;5037128;28;20172;-50
2021/11/11 08:35:07;;;;;;;3.60;3.13;;;;;;;;;;5036510;28;20267;-51
2021/11/11 08:37:33;;;;;;;3.55;3.17;;;;;;;;;;5030397;28;20203;-50
2021/11/11 08:39:59;;;;;;;4.68;3.70;;;;;;;;;;5027044;28;20192;-50
2021/11/11 08:42:25;;;;;;;5.55;3.25;;;;;;;;;;5037028;28;20167;-51
2021/11/11 08:44:53;;;;;;;4.35;3.28;;;;;;;;;;5036400;28;20447;-51
2021/11/11 08:47:20;;;;;;;3.38;3.03;;;;;;;;;;5034740;28;20491;-51
2021/11/11 08:49:47;;;;;;;4.30;3.53;;;;;;;;;;5036542;28;20203;-50
2021/11/11 08:52:14;;;;;;;3.30;3.00;;;;;;;;;;5036393;28;20172;-51
2021/11/11 08:54:40;;;;;;;4.72;3.10;;;;;;;;;;5036105;28;20176;-50
2021/11/11 08:57:06;;;;;;;5.03;3.22;;;;;;;;;;5035831;28;20184;-51
2021/11/11 08:59:33;;;;;;;5.82;3.95;;;;;;;;;;5035923;28;20192;-50
2021/11/11 09:01:59;;;;;;;4.15;3.35;;;;;;;;;;5036575;28;20160;-51
2021/11/11 09:04:25;;;;;;;4.50;3.67;;;;;;;;;;5035951;28;20180;-50
2021/11/11 09:06:51;;;;;;;3.40;3.05;;;;;;;;;;5023865;28;20179;-50
2021/11/11 09:09:19;;;;;;;4.03;3.47;;;;;;;;;;5036206;28;20183;-51
2021/11/11 09:11:45;;;;;;;3.88;3.13;;;;;;;;;;5035895;28;20182;-49
2021/11/11 09:14:11;;;;;;;5.03;3.00;;;;;;;;;;5035884;28;20175;-50
2021/11/11 09:16:38;;;;;;;4.68;2.92;;;;;;;;;;5036006;28;20188;-49
2021/11/11 09:19:05;;;;;;;5.57;3.22;;;;;;;;;;5025733;28;20559;-49
2021/11/11 09:21:31;;;;;;;3.58;3.15;;;;;;;;;;5029552;28;20179;-50
2021/11/11 09:23:57;;;;;;;4.18;3.10;;;;;;;;;;5035048;28;20181;-49
2021/11/11 09:26:24;;;;;;;8.80;3.10;;;;;;;;;;5035706;28;20190;-49
2021/11/11 09:28:50;;;;;;;8.00;3.30;;;;;;;;;;5029803;28;20165;-50
2021/11/11 09:31:16;;;;;;;4.65;3.10;;;;;;;;;;5035099;28;20258;-48
2021/11/11 09:33:43;;;;;;;4.82;3.55;;;;;;;;;;5034924;28;20176;-49
2021/11/11 09:36:11;;;;;;;5.53;3.47;;;;;;;;;;5035702;28;20175;-50
2021/11/11 09:38:37;;;;;;;4.75;3.13;;;;;;;;;;5021861;28;20476;-50
2021/11/11 09:41:03;;;;;;;5.75;3.50;;;;;;;;;;5028979;28;20192;-50
2021/11/11 09:43:29;;;;;;;7.25;3.55;;;;;;;;;;5035281;28;20267;-49
2021/11/11 09:45:55;;;;;;;6.68;3.33;;;;;;;;;;5034939;28;20190;-49
2021/11/11 09:48:22;;;;;;;7.03;3.40;;;;;;;;;;5033392;28;20182;-50
2021/11/11 09:50:49;;;;;;;9.30;3.72;;;;;;;;;;5035647;28;20175;-51
2021/11/11 09:53:21;;;;;;;10.45;4.40;;;;;;;;;;5035197;28;20587;-49
2021/11/11 09:58:41;;;;;;;7.18;4.10;;;;;;;;;;5024665;28;20187;-50
2021/11/11 10:01:27;;;;;;;6.90;4.25;;;;;;;;;;5034680;28;20199;-50
2021/11/11 10:03:54;;;;;;;7.57;4.18;;;;;;;;;;5033601;28;20204;-50
2021/11/11 10:06:22;;;;;;;8.73;4.30;;;;;;;;;;5031196;28;20180;-50
2021/11/11 10:09:08;;;;;;;7.85;4.18;;;;;;;;;;5032497;28;20225;-50
2021/11/11 10:11:37;;;;;;;8.88;4.10;;;;;;;;;;5033807;28;20202;-50
2021/11/11 10:14:14;;;;;;;6.28;3.67;;;;;;;;;;5034907;28;20571;-50
2021/11/11 10:16:41;;;;;;;8.85;4.10;;;;;;;;;;5033806;28;20529;-50
2021/11/11 10:19:07;;;;;;;11.80;3.72;;;;;;;;;;5024982;28;20196;-50
2021/11/11 10:21:39;;;;;;;8.27;4.28;;;;;;;;;;5035064;28;20207;-49
2021/11/11 10:24:13;;;;;;;7.30;4.57;;;;;;;;;;5034695;28;20168;-50
2021/11/11 10:26:44;;;;;;;8.57;3.83;;;;;;;;;;5034432;28;20225;-50
2021/11/11 10:29:23;;;;;;;7.15;3.90;;;;;;;;;;5034605;28;20184;-50
2021/11/11 10:31:51;;;;;;;8.18;4.07;;;;;;;;;;5034678;28;20180;-50
2021/11/11 10:34:17;;;;;;;6.28;4.05;;;;;;;;;;5034747;28;20171;-49
2021/11/11 10:36:45;;;;;;;5.88;3.60;;;;;;;;;;5034704;28;20552;-50
2021/11/11 10:39:18;;;;;;;5.75;3.85;;;;;;;;;;5017216;28;20258;-50
2021/11/11 10:41:45;;;;;;;6.45;4.00;;;;;;;;;;5034260;28;20255;-50
2021/11/11 10:44:26;;;;;;;6.10;3.97;;;;;;;;;;5033724;28;20556;-50
2021/11/11 10:47:01;;;;;;;6.07;3.63;;;;;;;;;;5027459;28;20580;-50
2021/11/11 10:49:32;;;;;;;10.10;4.38;;;;;;;;;;5034118;28;20233;-50
2021/11/11 10:52:18;;;;;;;5.07;3.63;;;;;;;;;;5034451;28;20183;-50
2021/11/11 10:54:59;;;;;;;4.40;3.50;;;;;;;;;;5033981;28;20184;-50
2021/11/11 10:57:39;;;;;;;6.40;3.60;;;;;;;;;;5033745;28;20493;-50
2021/11/11 11:00:11;;;;;;;5.78;3.33;;;;;;;;;;5032117;28;20198;-50
2021/11/11 11:02:56;;;;;;;3.75;3.40;;;;;;;;;;5034629;28;20191;-50
2021/11/11 11:05:23;;;;;;;5.05;3.47;;;;;;;;;;5034321;28;20179;-49
2021/11/11 11:07:54;;;;;;;5.18;3.42;;;;;;;;;;5029253;28;20442;-50
2021/11/11 11:10:20;;;;;;;5.90;3.50;;;;;;;;;;5021727;28;20226;-49
2021/11/11 11:12:46;;;;;;;4.55;3.17;;;;;;;;;;5034140;28;20168;-50
2021/11/11 11:15:32;;;;;;;4.22;3.60;;;;;;;;;;5037384;28;20206;-49
2021/11/11 11:17:58;;;;;;;4.80;3.63;;;;;;;;;;5032150;28;20181;-50
2021/11/11 11:20:27;;;;;;;4.78;3.67;;;;;;;;;;5034088;28;20195;-50
2021/11/11 11:23:09;;;;;;;5.88;3.45;;;;;;;;;;5038070;28;20167;-50
2021/11/11 11:25:35;;;;;;;5.78;3.40;;;;;;;;;;5038245;28;20176;-50
2021/11/11 11:28:01;;;;;;;5.30;3.30;;;;;;;;;;5034789;28;20191;-50
2021/11/11 11:30:41;;;;;;;4.43;3.03;;;;;;;;;;5038333;28;20841;-50
2021/11/11 11:33:18;;;;;;;4.25;3.25;;;;;;;;;;5038006;28;20199;-48
2021/11/11 11:35:44;;;;;;;4.50;3.13;;;;;;;;;;5037963;28;20246;-48
2021/11/11 11:38:23;;;;;;;5.50;3.33;;;;;;;;;;5030792;28;20266;-48
2021/11/11 11:40:49;;;;;;;5.15;3.45;;;;;;;;;;5032510;28;20598;-48
2021/11/11 11:43:31;;;;;;;5.75;3.00;;;;;;;;;;5037740;28;20179;-47
2021/11/11 11:46:17;;;;;;;4.95;3.20;;;;;;;;;;5037215;28;20186;-49
2021/11/11 11:48:44;;;;;;;5.32;3.17;;;;;;;;;;5033928;28;20175;-50
2021/11/11 11:51:15;;;;;;;4.20;3.40;;;;;;;;;;5037348;28;20253;-49
2021/11/11 11:54:02;;;;;;;4.10;3.08;;;;;;;;;;5037415;28;20168;-50
2021/11/11 11:56:36;;;;;;;4.78;3.28;;;;;;;;;;5036585;28;20237;-49
2021/11/11 11:59:06;;;;;;;4.82;3.30;;;;;;;;;;5037410;28;20341;-50
2021/11/11 12:01:40;;;;;;;3.85;2.90;;;;;;;;;;5028383;28;20172;-49
2021/11/11 12:07:05;;;;;;;4.50;3.17;;;;;;;;;;5025242;28;20612;-50
2021/11/11 12:12:22;;;;;;;4.35;3.15;;;;;;;;;;5037342;28;20291;-50
2021/11/11 12:14:56;;;;;;;4.75;2.90;;;;;;;;;;5037047;28;20184;-50
2021/11/11 12:17:48;;;;;;;3.25;2.95;;;;;;;;;;5036629;28;20190;-50
2021/11/11 12:28:34;;;;;;;3.17;2.60;;;;;;;;;;5036975;28;20238;-50
2021/11/11 12:40:06;;;;;;;4.10;2.85;;;;;;;;;;5036836;28;20207;-50
2021/11/11 12:42:38;;;;;;;3.70;2.65;;;;;;;;;;5037028;28;20538;-50
2021/11/11 12:45:09;;;;;;;3.97;2.88;;;;;;;;;;5030736;28;20175;-49
2021/11/11 12:47:36;;;;;;;3.13;2.65;;;;;;;;;;5036028;28;20184;-50
2021/11/11 12:50:20;;;;;;;3.08;2.78;;;;;;;;;;5031962;28;20231;-50
2021/11/11 12:52:46;;;;;;;4.95;2.92;;;;;;;;;;5050186;28;20187;-49
2021/11/11 12:55:14;;;;;;;4.05;3.00;;;;;;;;;;5038786;28;20609;-49
2021/11/11 12:57:57;;;;;;;3.22;2.70;;;;;;;;;;5035960;28;20179;-49
2021/11/11 13:00:32;;;;;;;2.97;2.65;;;;;;;;;;5034710;28;20193;-50
2021/11/11 13:02:58;;;;;;;3.67;2.80;;;;;;;;;;5034210;28;20593;-50
2021/11/11 13:05:43;;;;;;;3.25;2.63;;;;;;;;;;5036187;28;20238;-50
2021/11/11 13:08:10;;;;;;;2.88;2.58;;;;;;;;;;5033903;28;20186;-50
2021/11/11 13:10:52;;;;;;;2.88;2.58;;;;;;;;;;5035933;28;20202;-50
2021/11/11 13:13:25;;;;;;;2.83;2.60;;;;;;;;;;5034687;28;20766;-50
2021/11/11 13:15:51;;;;;;;3.63;2.70;;;;;;;;;;5034527;28;20180;-50
2021/11/11 13:18:39;;;;;;;3.47;2.60;;;;;;;;;;5035796;28;20522;-50
2021/11/11 13:21:15;;;;;;;3.40;2.60;;;;;;;;;;5035469;28;20583;-49
2021/11/11 13:23:55;;;;;;;3.13;2.40;;;;;;;;;;5026199;28;20180;-50
2021/11/11 13:54:49;;;;;;;3.65;2.60;;;;;;;;;;5034748;28;20202;-49
2021/11/11 15:16:13;;;;;;;5.82;2.78;;;;;;;;;;5034607;28;20186;-48
2021/11/11 15:59:56;;;;;;;3.90;2.67;;;;;;;;;;5026739;28;20264;-50
2021/11/11 16:19:37;;;;;;;4.07;3.60;;;;;;;;;;5028765;28;20820;-50
2021/11/11 16:22:13;;;;;;;5.72;3.17;;;;;;;;;;5036124;28;20199;-50
2021/11/11 16:25:02;;;;;;;4.07;3.10;;;;;;;;;;5035238;28;20440;-50
2021/11/11 16:27:29;;;;;;;4.13;2.97;;;;;;;;;;5036262;28;20164;-50
2021/11/11 16:30:00;;;;;;;6.55;3.42;;;;;;;;;;5036784;28;20180;-50
2021/11/11 16:32:26;;;;;;;6.95;3.60;;;;;;;;;;5037369;28;20202;-50
2021/11/11 16:34:52;;;;;;;5.57;3.28;;;;;;;;;;5035757;28;20211;-50
2021/11/11 16:37:18;;;;;;;4.40;3.00;;;;;;;;;;5036754;28;20176;-50
2021/11/11 16:39:44;;;;;;;4.97;3.55;;;;;;;;;;5036461;28;20203;-50
2021/11/11 16:42:10;;;;;;;4.07;3.30;;;;;;;;;;5036484;28;20184;-50
2021/11/11 16:44:36;;;;;;;4.07;3.25;;;;;;;;;;5023019;28;20177;-50
2021/11/11 16:47:02;;;;;;;4.65;3.30;;;;;;;;;;5036322;28;20210;-50
2021/11/11 16:49:32;;;;;;;4.30;3.47;;;;;;;;;;5036760;28;20266;-50
2021/11/11 16:51:59;;;;;;;4.10;3.67;;;;;;;;;;5036235;28;20606;-50
2021/11/11 16:54:25;;;;;;;5.07;3.35;;;;;;;;;;5023678;28;20185;-50
2021/11/11 16:56:51;;;;;;;5.13;3.83;;;;;;;;;;5022610;28;20191;-50
2021/11/11 16:59:16;;;;;;;3.80;3.45;;;;;;;;;;5035939;28;20180;-49
2021/11/11 17:01:42;;;;;;;5.57;3.60;;;;;;;;;;5036439;28;20208;-50
2021/11/11 17:04:08;;;;;;;4.22;3.70;;;;;;;;;;5035211;28;20188;-49
2021/11/11 17:06:35;;;;;;;6.43;3.58;;;;;;;;;;5036537;28;20183;-50
2021/11/11 17:09:01;;;;;;;4.78;3.90;;;;;;;;;;5035276;28;20199;-49
2021/11/11 17:11:27;;;;;;;5.00;3.65;;;;;;;;;;5024260;28;20202;-50
2021/11/11 17:13:53;;;;;;;5.40;3.90;;;;;;;;;;5031595;28;20179;-49
2021/11/11 17:16:22;;;;;;;4.13;3.63;;;;;;;;;;5026329;28;20194;-49
2021/11/11 17:18:51;;;;;;;5.07;4.18;;;;;;;;;;5031967;28;20187;-49
2021/11/11 17:21:18;;;;;;;3.97;3.58;;;;;;;;;;5032868;28;20338;-50
2021/11/11 17:23:58;;;;;;;4.93;3.50;;;;;;;;;;5025724;28;20176;-50
2021/11/11 17:26:44;;;;;;;4.75;3.97;;;;;;;;;;5031557;28;20176;-50
2021/11/11 17:29:14;;;;;;;5.40;3.38;;;;;;;;;;5031450;28;20435;-50
2021/11/11 17:31:42;;;;;;;4.60;3.83;;;;;;;;;;5023443;28;20168;-50
2021/11/11 17:34:08;;;;;;;4.68;3.78;;;;;;;;;;5031103;28;20164;-50
2021/11/11 17:36:35;;;;;;;4.53;4.03;;;;;;;;;;5033896;28;20179;-50
2021/11/11 17:39:01;;;;;;;5.55;4.45;;;;;;;;;;5021969;28;20172;-50
2021/11/11 17:41:27;;;;;;;7.32;4.50;;;;;;;;;;5025244;28;20221;-50
2021/11/11 17:43:53;;;;;;;7.25;4.57;;;;;;;;;;5028658;28;20250;-50
2021/11/11 17:46:31;;;;;;;24.10;12.57;;;;;;;;;;5031065;28;20208;-49
2021/11/11 17:48:58;;;;;;;55.50;21.60;;;;;;;;;;5029517;28;20207;-50
2021/11/11 17:54:03;;;;;;;45.47;17.90;;;;;;;;;;5029000;28;20707;-49
2021/11/11 17:56:30;;;;;;;39.63;16.08;;;;;;;;;;5029014;28;20177;-50
2021/11/11 17:58:58;;;;;;;31.38;13.18;;;;;;;;;;5029000;28;20187;-49
2021/11/11 18:01:26;;;;;;;27.90;12.65;;;;;;;;;;5032393;28;20196;-49
2021/11/11 18:03:55;;;;;;;28.15;11.48;;;;;;;;;;5033176;28;20222;-49
2021/11/11 18:06:29;;;;;;;30.80;12.25;;;;;;;;;;5035404;28;20259;-49
2021/11/11 18:08:58;;;;;;;25.02;11.82;;;;;;;;;;5035478;28;20206;-50
2021/11/11 18:11:27;;;;;;;20.70;10.45;;;;;;;;;;5032988;28;20258;-50
2021/11/11 18:13:59;;;;;;;23.98;11.60;;;;;;;;;;5027068;28;20267;-49
2021/11/11 18:16:27;;;;;;;26.13;11.75;;;;;;;;;;5031391;28;20175;-48
2021/11/11 18:18:53;;;;;;;28.50;11.23;;;;;;;;;;5033537;28;20266;-50
2021/11/11 18:21:19;;;;;;;20.23;10.68;;;;;;;;;;5033512;28;20207;-50
2021/11/11 18:23:46;;;;;;;22.02;11.30;;;;;;;;;;5032972;28;20179;-50